Time;durP1;ratioP1;P1;durP2;ratioP2;P2;SDS_P1;SDS_P2;PMS_P1;PMS_P2;Temp;Humidity;BMP_temperature;BMP_pressure;BME280_temperature;BME280_humidity;BME280_pressure;Samples;Min_cycle;Max_cycle;Signal;HPM_P1;HPM_P2
2023/06/21 00:08:58;;;;;;;;;;;24.30;43.70;;;;;;21000233;28;19971;-55
2023/06/21 00:18:59;;;;;;;;;;;24.40;43.40;;;;;;20999476;28;19931;-55
2023/06/21 00:28:59;;;;;;;;;;;24.40;43.10;;;;;;20998536;28;20389;-55
2023/06/21 00:39:00;;;;;;;;;;;24.40;43.00;;;;;;20997974;28;19978;-56
2023/06/21 00:49:01;;;;;;;;;;;24.50;42.70;;;;;;20998520;28;19947;-55
2023/06/21 00:59:04;;;;;;;;;;;24.40;44.00;;;;;;20996417;28;20369;-55
2023/06/21 01:09:13;;;;;;;;;;;24.30;44.60;;;;;;20997460;28;19931;-56
2023/06/21 01:19:23;;;;;;;;;;;24.10;45.00;;;;;;20997059;28;19947;-55
2023/06/21 01:29:28;;;;;;;;;;;24.10;45.80;;;;;;20995792;28;19925;-55
2023/06/21 01:39:28;;;;;;;;;;;23.90;46.30;;;;;;20996376;28;19924;-57
2023/06/21 01:49:30;;;;;;;;;;;23.70;47.00;;;;;;20995778;28;20020;-55
2023/06/21 01:59:31;;;;;;;;;;;23.50;47.80;;;;;;20995774;28;19986;-56
2023/06/21 02:09:31;;;;;;;;;;;23.20;48.90;;;;;;20995555;28;19925;-55
2023/06/21 02:19:32;;;;;;;;;;;23.10;49.50;;;;;;21010049;28;19924;-55
2023/06/21 02:29:32;;;;;;;;;;;22.90;49.50;;;;;;21009695;28;19925;-55
2023/06/21 02:39:33;;;;;;;;;;;22.60;50.70;;;;;;21008613;28;19924;-55
2023/06/21 02:49:36;;;;;;;;;;;22.40;51.40;;;;;;21007882;28;20007;-55
2023/06/21 02:59:37;;;;;;;;;;;22.30;52.00;;;;;;21007313;28;19982;-55
2023/06/21 03:09:38;;;;;;;;;;;22.20;52.50;;;;;;21006302;28;19925;-55
2023/06/21 03:19:38;;;;;;;;;;;22.00;52.70;;;;;;21005028;28;19943;-56
2023/06/21 03:29:39;;;;;;;;;;;21.90;52.60;;;;;;21003414;28;19924;-55
2023/06/21 03:39:39;;;;;;;;;;;21.70;52.80;;;;;;21003979;28;20027;-55
2023/06/21 03:49:40;;;;;;;;;;;21.60;53.20;;;;;;21002961;28;20007;-54
2023/06/21 03:59:41;;;;;;;;;;;21.50;53.10;;;;;;21002139;28;19924;-55
2023/06/21 04:09:41;;;;;;;;;;;21.50;53.10;;;;;;21001201;28;19931;-55
2023/06/21 04:19:42;;;;;;;;;;;21.50;53.60;;;;;;20999223;28;19925;-55
2023/06/21 04:29:43;;;;;;;;;;;21.40;53.50;;;;;;20998148;28;19925;-55
2023/06/21 04:39:43;;;;;;;;;;;21.20;53.60;;;;;;20998229;28;20451;-55
2023/06/21 04:49:44;;;;;;;;;;;21.20;53.70;;;;;;20998165;28;19950;-56
2023/06/21 04:59:46;;;;;;;;;;;21.00;54.00;;;;;;20996379;28;19924;-54
2023/06/21 05:09:46;;;;;;;;;;;20.90;54.20;;;;;;20997585;28;19924;-55
2023/06/21 05:19:47;;;;;;;;;;;21.00;54.20;;;;;;20997060;28;19924;-55
2023/06/21 05:29:48;;;;;;;;;;;21.10;54.10;;;;;;20997093;28;19978;-54
2023/06/21 05:39:49;;;;;;;;;;;21.00;54.40;;;;;;20994220;28;20357;-55
2023/06/21 05:49:49;;;;;;;;;;;21.10;54.50;;;;;;21004266;28;19924;-56
2023/06/21 05:59:50;;;;;;;;;;;21.20;54.10;;;;;;21010678;28;19924;-57
2023/06/21 06:09:51;;;;;;;;;;;21.20;54.40;;;;;;21010239;28;20007;-57
2023/06/21 06:19:51;;;;;;;;;;;21.30;54.20;;;;;;21009531;28;19970;-56
2023/06/21 06:29:52;;;;;;;;;;;21.40;54.10;;;;;;21007676;28;19924;-57
2023/06/21 06:39:54;;;;;;;;;;;21.60;53.90;;;;;;21006664;28;19946;-56
2023/06/21 06:49:55;;;;;;;;;;;21.70;53.70;;;;;;21007082;28;20330;-57
2023/06/21 06:59:56;;;;;;;;;;;21.90;53.60;;;;;;21004466;28;19924;-56
2023/06/21 07:09:56;;;;;;;;;;;22.00;53.60;;;;;;21005492;28;19924;-55
2023/06/21 07:19:57;;;;;;;;;;;22.20;53.30;;;;;;21004700;28;19928;-56
2023/06/21 07:29:58;;;;;;;;;;;23.00;51.50;;;;;;21002514;28;19981;-55
2023/06/21 07:39:59;;;;;;;;;;;23.50;50.40;;;;;;21002971;28;19931;-54
2023/06/21 07:49:59;;;;;;;;;;;24.00;49.00;;;;;;21001344;28;19924;-56
2023/06/21 08:00:08;;;;;;;;;;;24.40;48.30;;;;;;21001644;28;20411;-61
2023/06/21 08:10:09;;;;;;;;;;;24.70;49.20;;;;;;20998398;28;19925;-59
2023/06/21 08:20:10;;;;;;;;;;;25.10;50.20;;;;;;21000020;28;20323;-57
2023/06/21 08:30:11;;;;;;;;;;;25.40;46.30;;;;;;20999026;28;19932;-58
2023/06/21 08:40:13;;;;;;;;;;;25.50;44.90;;;;;;20997433;28;19924;-57
2023/06/21 08:50:16;;;;;;;;;;;26.10;45.10;;;;;;20997598;28;20293;-58
2023/06/21 09:00:22;;;;;;;;;;;26.20;45.80;;;;;;20996799;28;19936;-55
2023/06/21 09:10:24;;;;;;;;;;;26.20;44.20;;;;;;20994425;28;19924;-64
2023/06/21 09:20:28;;;;;;;;;;;26.60;42.40;;;;;;20995680;28;19931;-57
2023/06/21 09:30:28;;;;;;;;;;;26.60;43.00;;;;;;20993753;28;20377;-60
2023/06/21 09:40:39;;;;;;;;;;;26.90;42.50;;;;;;20994422;28;19986;-58
2023/06/21 09:50:44;;;;;;;;;;;27.20;39.70;;;;;;20993299;28;19924;-59
2023/06/21 10:00:44;;;;;;;;;;;27.30;40.90;;;;;;20993660;28;20015;-59
2023/06/21 10:10:45;;;;;;;;;;;27.40;37.20;;;;;;20993156;28;20378;-56
2023/06/21 10:20:47;;;;;;;;;;;27.50;37.20;;;;;;20993163;28;19931;-55
2023/06/21 10:30:50;;;;;;;;;;;27.60;37.10;;;;;;20992698;28;19928;-56
2023/06/21 10:40:52;;;;;;;;;;;28.10;36.50;;;;;;21007067;28;19926;-57
2023/06/21 10:50:54;;;;;;;;;;;28.30;36.60;;;;;;21005428;28;19970;-56
2023/06/21 11:00:55;;;;;;;;;;;28.10;36.40;;;;;;21005887;28;20297;-56
2023/06/21 11:10:56;;;;;;;;;;;28.20;36.40;;;;;;21004511;28;20289;-54
2023/06/21 11:20:57;;;;;;;;;;;28.50;36.30;;;;;;21002466;28;19924;-56
2023/06/21 11:31:03;;;;;;;;;;;28.70;35.80;;;;;;21002003;28;19925;-56
2023/06/21 11:41:22;;;;;;;;;;;28.70;36.30;;;;;;21002519;28;19967;-57
2023/06/21 11:51:23;;;;;;;;;;;29.00;35.60;;;;;;21001164;28;19931;-56
2023/06/21 12:01:24;;;;;;;;;;;29.00;35.50;;;;;;21001685;28;19925;-56
2023/06/21 12:11:26;;;;;;;;;;;29.00;36.00;;;;;;20999491;28;20361;-55
2023/06/21 12:21:26;;;;;;;;;;;29.10;36.00;;;;;;20999509;28;19983;-56
2023/06/21 12:31:30;;;;;;;;;;;29.00;35.90;;;;;;20998244;28;19924;-55
2023/06/21 12:41:32;;;;;;;;;;;29.10;36.00;;;;;;20998096;28;19981;-56
2023/06/21 12:51:34;;;;;;;;;;;29.30;34.90;;;;;;20998359;28;20297;-56
2023/06/21 13:01:36;;;;;;;;;;;29.20;35.40;;;;;;20996442;28;20446;-57
2023/06/21 13:11:37;;;;;;;;;;;29.70;34.40;;;;;;20997078;28;19925;-58
2023/06/21 13:21:38;;;;;;;;;;;29.60;35.30;;;;;;20996574;28;19928;-58
2023/06/21 13:31:38;;;;;;;;;;;29.80;34.70;;;;;;20995030;28;20396;-58
2023/06/21 13:41:39;;;;;;;;;;;29.80;34.30;;;;;;20994555;28;19975;-57
2023/06/21 13:51:39;;;;;;;;;;;29.90;34.30;;;;;;20994070;28;19928;-57
2023/06/21 14:01:40;;;;;;;;;;;29.90;34.60;;;;;;20994511;28;19968;-57
2023/06/21 14:11:41;;;;;;;;;;;29.90;34.10;;;;;;21003674;28;19924;-57
2023/06/21 14:21:41;;;;;;;;;;;30.10;33.50;;;;;;21009648;28;19924;-56
2023/06/21 14:31:42;;;;;;;;;;;30.10;33.40;;;;;;21008922;28;19925;-56
2023/06/21 14:41:43;;;;;;;;;;;30.00;33.60;;;;;;21006563;28;19925;-56
2023/06/21 14:51:44;;;;;;;;;;;30.00;33.30;;;;;;21006382;28;19925;-57
2023/06/21 15:01:44;;;;;;;;;;;30.10;33.20;;;;;;21006655;28;20032;-57
2023/06/21 15:11:45;;;;;;;;;;;30.10;32.40;;;;;;21004874;28;20417;-57
2023/06/21 15:21:46;;;;;;;;;;;30.20;32.50;;;;;;21004522;28;19924;-57
2023/06/21 15:31:47;;;;;;;;;;;30.50;32.20;;;;;;21003156;28;19939;-56
2023/06/21 15:41:49;;;;;;;;;;;30.30;32.10;;;;;;21002903;28;20390;-57
2023/06/21 15:51:50;;;;;;;;;;;30.20;32.20;;;;;;21001600;28;19977;-57
2023/06/21 16:01:50;;;;;;;;;;;30.40;31.90;;;;;;21001107;28;20397;-56
2023/06/21 16:11:51;;;;;;;;;;;30.20;31.70;;;;;;21000208;28;19930;-57
2023/06/21 16:21:52;;;;;;;;;;;30.00;32.40;;;;;;20999046;28;19925;-58
2023/06/21 16:31:52;;;;;;;;;;;29.60;33.50;;;;;;20998390;28;19950;-57
2023/06/21 16:41:53;;;;;;;;;;;29.30;34.40;;;;;;20996768;28;19924;-56
2023/06/21 16:51:54;;;;;;;;;;;28.90;34.80;;;;;;20996110;28;20002;-57
2023/06/21 17:01:54;;;;;;;;;;;28.70;34.50;;;;;;20994970;28;20394;-56
2023/06/21 17:11:55;;;;;;;;;;;28.40;34.50;;;;;;20995318;28;20284;-57
2023/06/21 17:21:56;;;;;;;;;;;28.30;36.00;;;;;;20995768;28;20408;-56
2023/06/21 17:31:57;;;;;;;;;;;27.90;38.60;;;;;;20996740;28;19924;-56
2023/06/21 17:41:58;;;;;;;;;;;27.50;35.80;;;;;;21000393;28;20052;-59
2023/06/21 17:51:58;;;;;;;;;;;27.50;37.00;;;;;;21010942;28;19932;-58
2023/06/21 18:01:59;;;;;;;;;;;26.70;45.20;;;;;;21011436;28;20296;-58
2023/06/21 18:12:00;;;;;;;;;;;25.90;51.20;;;;;;21009650;28;19970;-57
2023/06/21 18:22:00;;;;;;;;;;;25.90;53.50;;;;;;21007982;28;19978;-57
2023/06/21 18:32:02;;;;;;;;;;;25.40;57.40;;;;;;21006540;28;19924;-58
2023/06/21 18:42:02;;;;;;;;;;;24.80;58.90;;;;;;21006498;28;19970;-58
2023/06/21 18:52:03;;;;;;;;;;;24.60;60.40;;;;;;21003054;28;19925;-57
2023/06/21 19:02:04;;;;;;;;;;;24.40;61.40;;;;;;21003598;28;20390;-57
2023/06/21 19:12:05;;;;;;;;;;;24.20;61.30;;;;;;21003343;28;19925;-57
2023/06/21 19:22:05;;;;;;;;;;;23.80;63.60;;;;;;21003578;28;20422;-56
2023/06/21 19:32:06;;;;;;;;;;;23.20;64.90;;;;;;21002394;28;19924;-56
2023/06/21 19:42:07;;;;;;;;;;;23.00;64.40;;;;;;21000913;28;19924;-56
2023/06/21 19:52:08;;;;;;;;;;;22.90;64.70;;;;;;20999901;28;20507;-57
2023/06/21 20:02:08;;;;;;;;;;;22.80;65.00;;;;;;20999816;28;19938;-55
2023/06/21 20:12:10;;;;;;;;;;;22.40;66.10;;;;;;20999143;28;19924;-56
2023/06/21 20:22:10;;;;;;;;;;;21.90;69.10;;;;;;20998511;28;19931;-55
2023/06/21 20:32:11;;;;;;;;;;;21.80;67.90;;;;;;20997090;28;19925;-56
2023/06/21 20:42:14;;;;;;;;;;;21.40;70.20;;;;;;20994898;28;20621;-56
2023/06/21 20:52:15;;;;;;;;;;;21.30;70.20;;;;;;20996280;28;19931;-57
2023/06/21 21:02:15;;;;;;;;;;;21.20;70.40;;;;;;20997233;28;19924;-57
2023/06/21 21:12:16;;;;;;;;;;;21.20;69.20;;;;;;20995669;28;20021;-57
2023/06/21 21:22:16;;;;;;;;;;;20.70;66.80;;;;;;20995191;28;20398;-57
2023/06/21 21:32:17;;;;;;;;;;;20.70;67.70;;;;;;20996138;28;20011;-56
2023/06/21 21:42:18;;;;;;;;;;;20.70;69.20;;;;;;20995680;28;19977;-57
2023/06/21 21:52:18;;;;;;;;;;;20.70;69.80;;;;;;20995239;28;20069;-57
2023/06/21 22:12:38;;;;;;;;;;;20.40;71.20;;;;;;20994629;28;19924;-56
2023/06/21 22:22:43;;;;;;;;;;;20.50;70.30;;;;;;20993696;28;20475;-56
2023/06/21 22:32:43;;;;;;;;;;;20.40;71.20;;;;;;21002685;28;20078;-55
2023/06/21 22:42:44;;;;;;;;;;;20.60;72.10;;;;;;21008238;28;19925;-56
2023/06/21 22:52:53;;;;;;;;;;;20.50;71.20;;;;;;21007681;28;19928;-57
2023/06/21 23:02:54;;;;;;;;;;;20.30;71.40;;;;;;21007031;28;19924;-57
2023/06/21 23:12:54;;;;;;;;;;;20.30;71.60;;;;;;21006493;28;20015;-56
2023/06/21 23:22:55;;;;;;;;;;;20.30;73.30;;;;;;21005258;28;19924;-56
2023/06/21 23:32:56;;;;;;;;;;;20.20;73.90;;;;;;21004852;28;20289;-56
2023/06/21 23:42:58;;;;;;;;;;;20.50;73.60;;;;;;21002034;28;20011;-56
2023/06/21 23:52:59;;;;;;;;;;;20.40;72.80;;;;;;21003194;28;19972;-56
